createdAt,value
2023-01-13T00:01:27.607Z,100291.84
2023-01-13T00:03:54.945Z,100306.75
2023-01-13T00:06:27.880Z,100305.91
2023-01-13T00:08:55.244Z,100307.63
2023-01-13T00:11:23.289Z,100298.91
2023-01-13T00:13:50.532Z,100305.03
2023-01-13T00:16:19.093Z,100306.78
2023-01-13T00:18:47.697Z,100302.44
2023-01-13T00:21:18.681Z,100312.03
2023-01-13T00:23:47.445Z,100298.06
2023-01-13T00:26:21.814Z,100291.06
2023-01-13T00:28:49.279Z,100284.06
2023-01-13T00:31:21.189Z,100284.97
2023-01-13T00:33:49.270Z,100271.84
2023-01-13T00:36:18.298Z,100269.22
2023-01-13T00:38:45.725Z,100258.75
2023-01-13T00:41:16.244Z,100253.47
2023-01-13T00:43:43.867Z,100265.72
2023-01-13T00:46:16.863Z,100247.38
2023-01-13T00:48:44.473Z,100251.78
2023-01-13T00:51:15.792Z,100245.66
2023-01-13T00:53:47.999Z,100249.13
2023-01-13T00:56:41.169Z,100245.63
2023-01-13T00:59:12.962Z,100239.53
2023-01-13T01:01:41.663Z,100244.75
2023-01-13T01:04:09.006Z,100246.50
2023-01-13T01:06:36.167Z,100240.41
2023-01-13T01:09:04.252Z,100245.63
2023-01-13T01:11:32.866Z,100250.00
2023-01-13T01:14:03.019Z,100256.16
2023-01-13T01:16:32.832Z,100259.66
2023-01-13T01:19:01.117Z,100261.38
2023-01-13T01:21:29.155Z,100262.25
2023-01-13T01:23:59.083Z,100264.00
2023-01-13T01:26:28.759Z,100259.66
2023-01-13T01:28:56.417Z,100250.91
2023-01-13T01:31:33.202Z,100250.91
2023-01-13T01:34:01.469Z,100256.16
2023-01-13T01:36:30.352Z,100267.50
2023-01-13T01:38:59.326Z,100266.66
2023-01-13T01:41:30.541Z,100264.03
2023-01-13T01:44:07.807Z,100270.13
2023-01-13T01:46:43.895Z,100265.78
2023-01-13T01:49:24.500Z,100271.88
2023-01-13T01:52:02.352Z,100270.16
2023-01-13T01:54:52.271Z,100266.66
2023-01-13T01:57:29.404Z,100264.06
2023-01-13T02:00:00.932Z,100269.31
2023-01-13T02:02:30.573Z,100289.38
2023-01-13T02:04:59.251Z,100277.16
2023-01-13T02:07:30.612Z,100264.91
2023-01-13T02:10:02.746Z,100282.38
2023-01-13T02:12:30.249Z,100259.69
2023-01-13T02:15:14.261Z,100260.53
2023-01-13T02:17:53.166Z,100258.78
2023-01-13T02:20:53.859Z,100260.56
2023-01-13T02:24:07.358Z,100253.56
2023-01-13T02:27:34.007Z,100255.28
2023-01-13T02:30:41.494Z,100251.81
2023-01-13T02:33:23.436Z,100266.63
2023-01-13T02:36:05.264Z,100259.66
2023-01-13T02:38:51.523Z,100273.66
2023-01-13T02:42:39.404Z,100278.00
2023-01-13T02:45:16.467Z,100276.28
2023-01-13T02:47:47.587Z,100268.41
2023-01-13T02:50:22.127Z,100267.50
2023-01-13T02:53:17.754Z,100272.78
2023-01-13T02:55:49.911Z,100254.41
2023-01-13T02:58:21.249Z,100262.28
2023-01-13T03:00:49.180Z,100263.19
2023-01-13T03:03:16.452Z,100265.78
2023-01-13T03:05:46.599Z,100246.56
2023-01-13T03:08:42.812Z,100252.66
2023-01-13T03:11:13.213Z,100233.44
2023-01-13T03:14:04.729Z,100241.31
2023-01-13T03:16:57.254Z,100250.94
2023-01-13T03:19:59.619Z,100243.06
2023-01-13T03:22:53.325Z,100250.06
2023-01-13T03:25:36.084Z,100250.03
2023-01-13T03:28:20.347Z,100264.91
2023-01-13T03:30:56.950Z,100257.91
2023-01-13T03:33:53.804Z,100243.94
2023-01-13T03:36:26.123Z,100237.81
2023-01-13T03:39:03.885Z,100243.94
2023-01-13T03:41:44.466Z,100258.75
2023-01-13T03:44:32.872Z,100261.41
2023-01-13T03:47:14.843Z,100261.38
2023-01-13T03:50:03.398Z,100261.38
2023-01-13T03:52:36.840Z,100239.53
2023-01-13T03:55:13.563Z,100247.38
2023-01-13T03:57:53.682Z,100253.53
2023-01-13T04:00:27.398Z,100239.56
2023-01-13T04:03:04.441Z,100254.41
2023-01-13T04:05:36.382Z,100248.31
2023-01-13T04:08:25.211Z,100255.31
2023-01-13T04:11:12.768Z,100253.53
2023-01-13T04:13:43.147Z,100267.53
2023-01-13T04:16:11.876Z,100263.16
2023-01-13T04:18:40.292Z,100260.53
2023-01-13T04:21:08.344Z,100250.94
2023-01-13T04:23:35.656Z,100262.28
2023-01-13T04:26:02.619Z,100268.41
2023-01-13T04:28:29.661Z,100257.94
2023-01-13T04:30:56.818Z,100250.06
2023-01-13T04:33:23.933Z,100243.06
2023-01-13T04:35:52.634Z,100233.44
2023-01-13T04:38:21.539Z,100237.84
2023-01-13T04:40:48.689Z,100235.19
2023-01-13T04:43:16.061Z,100238.72
2023-01-13T04:45:43.861Z,100242.19
2023-01-13T04:48:11.271Z,100242.19
2023-01-13T04:50:38.800Z,100247.44
2023-01-13T04:53:06.171Z,100261.41
2023-01-13T04:55:33.487Z,100246.56
2023-01-13T04:58:10.148Z,100245.69
2023-01-13T05:00:38.448Z,100250.06
2023-01-13T05:03:05.501Z,100238.69
2023-01-13T05:05:33.034Z,100236.94
2023-01-13T05:08:00.229Z,100243.03
2023-01-13T05:10:27.665Z,100232.56
2023-01-13T05:13:13.399Z,100242.19
2023-01-13T05:16:00.466Z,100245.69
2023-01-13T05:18:29.845Z,100243.06
2023-01-13T05:20:56.936Z,100243.06
2023-01-13T05:23:42.860Z,100247.44
2023-01-13T05:26:10.166Z,100255.28
2023-01-13T05:28:37.499Z,100237.84
2023-01-13T05:31:04.679Z,100264.88
2023-01-13T05:33:32.747Z,100244.81
2023-01-13T05:36:03.191Z,100255.28
2023-01-13T05:38:30.415Z,100260.53
2023-01-13T05:41:18.843Z,100251.78
2023-01-13T05:43:45.855Z,100257.91
2023-01-13T05:46:12.963Z,100245.69
2023-01-13T05:48:42.914Z,100243.03
2023-01-13T05:51:12.369Z,100251.78
2023-01-13T05:53:42.410Z,100255.25
2023-01-13T05:56:10.843Z,100246.53
2023-01-13T05:58:38.307Z,100250.91
2023-01-13T06:01:10.674Z,100248.25
2023-01-13T06:03:38.392Z,100249.13
2023-01-13T06:06:06.092Z,100253.50
2023-01-13T06:08:33.201Z,100249.13
2023-01-13T06:11:00.884Z,100251.75
2023-01-13T06:13:28.029Z,100261.38
2023-01-13T06:15:59.513Z,100256.13
2023-01-13T06:18:27.772Z,100261.38
2023-01-13T06:20:55.352Z,100273.59
2023-01-13T06:23:22.405Z,100290.19
2023-01-13T06:26:10.376Z,100293.69
2023-01-13T06:28:37.420Z,100290.19
2023-01-13T06:31:08.737Z,100299.78
2023-01-13T06:33:49.478Z,100294.56
2023-01-13T06:36:47.673Z,100299.78
2023-01-13T06:39:20.173Z,100312.03
2023-01-13T06:42:08.541Z,100314.63
2023-01-13T06:44:35.608Z,100324.25
2023-01-13T06:47:02.974Z,100325.09
2023-01-13T06:49:30.379Z,100320.78
2023-01-13T06:51:57.356Z,100317.28
2023-01-13T06:54:25.840Z,100313.81
2023-01-13T06:56:54.814Z,100311.19
2023-01-13T06:59:22.756Z,100312.91
2023-01-13T07:01:50.075Z,100305.06
2023-01-13T07:04:17.232Z,100310.31
2023-01-13T07:06:44.606Z,100322.53
2023-01-13T07:09:11.703Z,100318.16
2023-01-13T07:11:38.783Z,100317.28
2023-01-13T07:14:24.732Z,100325.97
2023-01-13T07:16:53.805Z,100332.97
2023-01-13T07:19:23.936Z,100316.38
2023-01-13T07:21:54.071Z,100325.97
2023-01-13T07:24:22.559Z,100337.31
2023-01-13T07:26:52.197Z,100336.44
2023-01-13T07:29:19.379Z,100339.94
2023-01-13T07:31:49.687Z,100332.91
2023-01-13T07:34:17.225Z,100339.03
2023-01-13T07:36:44.529Z,100343.38
2023-01-13T07:39:11.639Z,100344.28
2023-01-13T07:41:57.649Z,100346.06
2023-01-13T07:44:24.940Z,100349.56
2023-01-13T07:46:51.954Z,100354.81
2023-01-13T07:49:18.997Z,100348.66
2023-01-13T07:51:46.004Z,100353.03
2023-01-13T07:54:12.965Z,100354.78
2023-01-13T07:56:40.213Z,100355.66
2023-01-13T07:59:07.345Z,100354.78
2023-01-13T08:01:34.462Z,100354.78
2023-01-13T08:04:01.590Z,100352.16
2023-01-13T08:06:28.790Z,100358.28
2023-01-13T08:08:55.790Z,100347.81
2023-01-13T08:11:23.725Z,100360.91
2023-01-13T08:13:55.021Z,100365.28
2023-01-13T08:16:22.062Z,100367.91
2023-01-13T08:18:49.168Z,100371.38
2023-01-13T08:21:16.936Z,100367.03
2023-01-13T08:23:45.198Z,100366.16
2023-01-13T08:26:17.362Z,100387.13
2023-01-13T08:28:45.674Z,100381.91
2023-01-13T08:31:20.086Z,100395.03
2023-01-13T08:33:47.340Z,100389.78
2023-01-13T08:36:14.810Z,100388.06
2023-01-13T08:38:42.251Z,100380.22
2023-01-13T08:41:36.481Z,100381.97
2023-01-13T08:44:03.909Z,100373.25
2023-01-13T08:46:31.009Z,100379.34
2023-01-13T08:48:58.297Z,100384.63
2023-01-13T08:51:25.453Z,100382.91
2023-01-13T08:53:52.460Z,100393.41
2023-01-13T08:56:19.491Z,100391.66
2023-01-13T08:58:46.859Z,100402.16
2023-01-13T09:01:19.884Z,100393.44
2023-01-13T09:03:47.069Z,100393.41
2023-01-13T09:06:14.558Z,100395.19
2023-01-13T09:08:41.872Z,100393.44
2023-01-13T09:11:44.487Z,100398.69
2023-01-13T09:14:11.450Z,100394.31
2023-01-13T09:16:38.475Z,100405.66
2023-01-13T09:19:05.475Z,100405.69
2023-01-13T09:21:32.492Z,100400.41
2023-01-13T09:23:59.656Z,100396.88
2023-01-13T09:26:26.864Z,100390.78
2023-01-13T09:28:53.856Z,100397.75
2023-01-13T09:31:21.209Z,100396.91
2023-01-13T09:34:07.065Z,100421.38
2023-01-13T09:36:34.275Z,100427.50
2023-01-13T09:39:01.445Z,100432.72
2023-01-13T09:41:49.719Z,100436.22
2023-01-13T09:44:48.455Z,100435.38
2023-01-13T09:47:29.263Z,100459.00
2023-01-13T09:50:28.969Z,100438.88
2023-01-13T09:52:57.392Z,100436.25
2023-01-13T09:55:37.917Z,100441.50
2023-01-13T09:58:18.568Z,100441.50
2023-01-13T10:00:58.444Z,100438.84
2023-01-13T10:03:29.559Z,100444.09
2023-01-13T10:06:42.438Z,100447.59
2023-01-13T10:09:21.311Z,100451.97
2023-01-13T10:12:09.241Z,100444.06
2023-01-13T10:14:55.209Z,100453.72
2023-01-13T10:17:58.344Z,100449.28
2023-01-13T10:20:49.769Z,100463.25
2023-01-13T10:23:46.688Z,100461.50
2023-01-13T10:26:58.051Z,100463.16
2023-01-13T10:29:28.627Z,100452.44
2023-01-13T10:31:58.256Z,100463.56
2023-01-13T10:34:27.637Z,100481.88
2023-01-13T10:37:09.853Z,100468.84
2023-01-13T10:39:46.397Z,100477.81
2023-01-13T10:42:22.067Z,100468.22
2023-01-13T10:44:55.322Z,100491.06
2023-01-13T10:47:33.277Z,100504.31
2023-01-13T10:50:05.448Z,100485.13
2023-01-13T10:52:41.513Z,100501.00
2023-01-13T10:55:33.387Z,100506.31
2023-01-13T10:58:21.428Z,100510.69
2023-01-13T11:00:58.390Z,100519.44
2023-01-13T11:03:28.039Z,100515.94
2023-01-13T11:06:00.356Z,100511.53
2023-01-13T11:08:49.732Z,100513.31
2023-01-13T11:11:43.575Z,100514.22
2023-01-13T11:14:50.214Z,100510.69
2023-01-13T11:17:47.197Z,100511.53
2023-01-13T11:20:32.450Z,100503.63
2023-01-13T11:23:08.310Z,100493.13
2023-01-13T11:25:43.509Z,100515.88
2023-01-13T11:28:38.150Z,100518.53
2023-01-13T11:31:14.934Z,100516.78
2023-01-13T11:33:53.577Z,100515.91
2023-01-13T11:36:33.082Z,100527.28
2023-01-13T11:39:20.828Z,100512.34
2023-01-13T11:42:18.501Z,100524.59
2023-01-13T11:45:03.386Z,100541.19
2023-01-13T11:47:32.260Z,100532.41
2023-01-13T11:50:00.400Z,100538.56
2023-01-13T11:53:00.595Z,100540.31
2023-01-13T11:56:04.727Z,100529.75
2023-01-13T11:59:01.933Z,100545.56
2023-01-13T12:01:52.941Z,100537.69
2023-01-13T12:04:23.284Z,100549.97
2023-01-13T12:07:36.649Z,100551.75
2023-01-13T12:10:13.725Z,100551.75
2023-01-13T12:13:00.181Z,100564.94
2023-01-13T12:16:09.223Z,100578.09
2023-01-13T12:19:17.649Z,100575.47
2023-01-13T12:22:12.372Z,100578.09
2023-01-13T12:25:32.571Z,100579.88
2023-01-13T12:28:07.732Z,100578.13
2023-01-13T12:30:56.538Z,100579.88
2023-01-13T12:34:06.051Z,100589.50
2023-01-13T12:36:50.813Z,100583.34
2023-01-13T12:39:27.162Z,100594.75
2023-01-13T12:42:28.698Z,100584.25
2023-01-13T12:45:10.130Z,100585.13
2023-01-13T12:47:45.667Z,100585.13
2023-01-13T12:50:27.352Z,100598.28
2023-01-13T12:53:21.351Z,100604.41
2023-01-13T12:55:53.206Z,100612.28
2023-01-13T12:58:28.570Z,100607.91
2023-01-13T13:01:10.881Z,100618.41
2023-01-13T13:03:38.315Z,100619.25
2023-01-13T13:06:17.771Z,100623.69
2023-01-13T13:08:58.682Z,100623.69
2023-01-13T13:12:03.012Z,100635.94
2023-01-13T13:14:42.138Z,100638.56
2023-01-13T13:17:39.599Z,100640.31
2023-01-13T13:21:06.980Z,100640.31
2023-01-13T13:23:36.551Z,100634.19
2023-01-13T13:26:30.972Z,100649.97
2023-01-13T13:29:42.970Z,100657.84
2023-01-13T13:32:25.832Z,100664.84
2023-01-13T13:35:43.321Z,100672.72
2023-01-13T13:39:07.938Z,100675.34
2023-01-13T13:41:55.628Z,100680.63
2023-01-13T13:44:56.231Z,100689.38
2023-01-13T13:47:23.534Z,100688.50
2023-01-13T13:49:54.527Z,100696.38
2023-01-13T13:52:30.322Z,100699.88
2023-01-13T13:55:07.741Z,100713.03
2023-01-13T13:57:40.060Z,100726.19
2023-01-13T14:00:29.980Z,100720.03
2023-01-13T14:03:04.440Z,100726.19
2023-01-13T14:05:34.903Z,100727.06
2023-01-13T14:08:14.310Z,100727.06
2023-01-13T14:10:43.452Z,100748.97
2023-01-13T14:13:22.809Z,100740.22
2023-01-13T14:16:13.814Z,100736.69
2023-01-13T14:18:48.545Z,100757.75
2023-01-13T14:21:20.506Z,100756.88
2023-01-13T14:23:59.408Z,100756.84
2023-01-13T14:26:32.615Z,100758.63
2023-01-13T14:29:02.256Z,100764.75
2023-01-13T14:31:30.510Z,100759.50
2023-01-13T14:34:01.838Z,100765.59
2023-01-13T14:36:38.952Z,100776.13
2023-01-13T14:39:06.402Z,100781.38
2023-01-13T14:41:42.483Z,100776.97
2023-01-13T14:44:35.948Z,100781.38
2023-01-13T14:47:28.592Z,100788.38
2023-01-13T14:50:07.243Z,100788.34
2023-01-13T14:52:47.044Z,100796.25
2023-01-13T14:55:28.785Z,100789.22
2023-01-13T14:58:20.655Z,100795.38
2023-01-13T15:00:49.670Z,100810.22
2023-01-13T15:03:21.123Z,100809.34
2023-01-13T15:05:52.080Z,100818.97
2023-01-13T15:08:34.718Z,100823.34
2023-01-13T15:11:07.669Z,100821.59
2023-01-13T15:13:53.368Z,100832.97
2023-01-13T15:16:26.633Z,100828.56
2023-01-13T15:18:57.977Z,100842.56
2023-01-13T15:21:25.346Z,100845.16
2023-01-13T15:23:52.446Z,100861.84
2023-01-13T15:26:28.793Z,100872.44
2023-01-13T15:28:58.515Z,100877.72
2023-01-13T15:31:26.661Z,100875.97
2023-01-13T15:33:54.699Z,100869.78
2023-01-13T15:36:31.069Z,100874.13
2023-01-13T15:39:00.048Z,100884.56
2023-01-13T15:41:45.850Z,100892.44
2023-01-13T15:44:33.429Z,100884.53
2023-01-13T15:47:06.544Z,100885.41
2023-01-13T15:49:42.258Z,100889.78
2023-01-13T15:52:28.145Z,100894.97
2023-01-13T15:54:55.364Z,100897.59
2023-01-13T15:57:33.400Z,100904.63
2023-01-13T16:00:20.504Z,100899.34
2023-01-13T16:02:48.952Z,100903.69
2023-01-13T16:05:16.917Z,100908.06
2023-01-13T16:07:44.019Z,100906.31
2023-01-13T16:10:24.067Z,100921.19
2023-01-13T16:12:51.483Z,100915.09
2023-01-13T16:15:22.445Z,100920.34
2023-01-13T16:17:58.134Z,100925.59
2023-01-13T16:20:26.265Z,100929.13
2023-01-13T16:22:55.945Z,100927.38
2023-01-13T16:25:26.547Z,100929.13
2023-01-13T16:27:54.463Z,100934.38
2023-01-13T16:30:28.989Z,100944.06
2023-01-13T16:32:56.256Z,100937.94
2023-01-13T16:35:24.557Z,100938.81
2023-01-13T16:37:52.344Z,100954.56
2023-01-13T16:40:31.961Z,100956.31
2023-01-13T16:43:00.995Z,100953.69
2023-01-13T16:45:28.256Z,100961.56
2023-01-13T16:47:55.409Z,100960.69
2023-01-13T16:50:36.320Z,100966.88
2023-01-13T16:53:04.720Z,100966.88
2023-01-13T16:55:32.458Z,100969.50
2023-01-13T16:57:59.496Z,100979.16
2023-01-13T17:00:27.005Z,100983.53
2023-01-13T17:02:54.409Z,100993.16
2023-01-13T17:05:21.746Z,100991.41
2023-01-13T17:07:48.909Z,100994.91
2023-01-13T17:10:20.320Z,100994.06
2023-01-13T17:12:47.359Z,101002.84
2023-01-13T17:15:17.232Z,100996.72
2023-01-13T17:17:48.100Z,101006.28
2023-01-13T17:20:16.390Z,101010.69
2023-01-13T17:22:45.617Z,101012.41
2023-01-13T17:25:14.864Z,101015.03
2023-01-13T17:27:42.500Z,101013.28
2023-01-13T17:30:14.211Z,101015.84
2023-01-13T17:32:41.927Z,101019.31
2023-01-13T17:35:09.919Z,101018.38
2023-01-13T17:37:37.193Z,101014.84
2023-01-13T17:40:05.019Z,101021.78
2023-01-13T17:42:32.152Z,101033.97
2023-01-13T17:44:59.151Z,101030.38
2023-01-13T17:47:26.186Z,101037.31
2023-01-13T17:49:53.246Z,101037.28
2023-01-13T17:52:20.441Z,101036.34
2023-01-13T17:54:47.460Z,101051.13
2023-01-13T17:57:14.664Z,101053.75
2023-01-13T17:59:41.821Z,101057.25
2023-01-13T18:02:12.453Z,101061.59
2023-01-13T18:04:40.173Z,101055.47
2023-01-13T18:07:07.157Z,101061.53
2023-01-13T18:09:34.382Z,101065.88
2023-01-13T18:12:01.826Z,101051.88
2023-01-13T18:14:28.915Z,101054.44
2023-01-13T18:16:56.267Z,101045.69
2023-01-13T18:19:42.198Z,101055.31
2023-01-13T18:22:32.065Z,101052.69
2023-01-13T18:25:18.063Z,101054.41
2023-01-13T18:27:45.564Z,101050.94
2023-01-13T18:30:14.980Z,101065.78
2023-01-13T18:32:42.935Z,101072.78
2023-01-13T18:35:10.713Z,101067.53
2023-01-13T18:37:42.332Z,101076.31
2023-01-13T18:40:13.406Z,101080.69
2023-01-13T18:42:56.294Z,101078.94
2023-01-13T18:45:30.768Z,101091.19
2023-01-13T18:48:01.360Z,101102.53
2023-01-13T18:50:29.409Z,101103.41
2023-01-13T18:52:56.885Z,101100.75
2023-01-13T18:55:24.452Z,101118.22
2023-01-13T18:57:52.552Z,101112.06
2023-01-13T19:00:21.586Z,101119.06
2023-01-13T19:05:34.977Z,101116.50
2023-01-13T19:08:03.349Z,101120.00
2023-01-13T19:10:32.347Z,101136.66
2023-01-13T19:13:01.166Z,101148.97
2023-01-13T19:15:28.398Z,101157.75
2023-01-13T19:17:55.456Z,101158.63
2023-01-13T19:20:22.445Z,101172.56
2023-01-13T19:22:54.233Z,101175.09
2023-01-13T19:25:21.396Z,101163.59
2023-01-13T19:27:48.562Z,101160.75
2023-01-13T19:30:15.855Z,101164.09
2023-01-13T19:32:42.898Z,101171.84
2023-01-13T19:35:13.011Z,101166.50
2023-01-13T19:37:40.417Z,101168.97
2023-01-13T19:40:09.685Z,101165.34
2023-01-13T19:42:55.612Z,101179.19
2023-01-13T19:45:31.266Z,101182.56
2023-01-13T19:48:01.923Z,101184.19
2023-01-13T19:50:29.417Z,101188.50
2023-01-13T19:52:56.553Z,101187.63
2023-01-13T19:55:24.007Z,101184.09
2023-01-13T19:57:51.005Z,101184.03
2023-01-13T20:00:20.831Z,101179.63
2023-01-13T20:02:51.804Z,101175.28
2023-01-13T20:05:22.552Z,101177.91
2023-01-13T20:07:51.324Z,101188.44
2023-01-13T20:10:38.785Z,101195.47
2023-01-13T20:13:06.627Z,101201.63
2023-01-13T20:15:33.724Z,101208.75
2023-01-13T20:18:00.868Z,101217.50
2023-01-13T20:20:28.039Z,101198.28
2023-01-13T20:22:55.203Z,101209.66
2023-01-13T20:25:22.306Z,101200.00
2023-01-13T20:27:49.603Z,101207.81
2023-01-13T20:30:16.729Z,101199.00
2023-01-13T20:32:45.079Z,101199.84
2023-01-13T20:35:12.704Z,101209.34
2023-01-13T20:37:42.168Z,101210.19
2023-01-13T20:40:15.702Z,101225.88
2023-01-13T20:42:45.229Z,101217.16
2023-01-13T20:45:18.024Z,101222.44
2023-01-13T20:47:45.675Z,101217.19
2023-01-13T20:50:13.424Z,101227.72
2023-01-13T20:52:40.666Z,101223.38
2023-01-13T20:55:08.814Z,101225.16
2023-01-13T20:57:36.050Z,101248.78
2023-01-13T21:00:16.541Z,101256.72
2023-01-13T21:02:44.051Z,101260.22
2023-01-13T21:05:11.135Z,101254.88
2023-01-13T21:07:38.342Z,101245.25
2023-01-13T21:10:06.326Z,101250.38
2023-01-13T21:12:52.179Z,101251.22
2023-01-13T21:15:21.736Z,101258.00
2023-01-13T21:18:09.743Z,101259.78
2023-01-13T21:20:39.090Z,101262.34
2023-01-13T21:23:07.171Z,101271.94
2023-01-13T21:25:36.465Z,101284.97
2023-01-13T21:28:06.793Z,101287.56
2023-01-13T21:30:35.405Z,101280.53
2023-01-13T21:33:04.204Z,101286.63
2023-01-13T21:35:31.398Z,101289.25
2023-01-13T21:37:58.548Z,101279.69
2023-01-13T21:40:26.863Z,101278.84
2023-01-13T21:43:12.604Z,101290.25
2023-01-13T21:45:58.317Z,101295.50
2023-01-13T21:48:25.431Z,101298.13
2023-01-13T21:50:52.384Z,101300.78
2023-01-13T21:53:19.542Z,101305.28
2023-01-13T21:55:52.110Z,101305.31
2023-01-13T21:58:19.329Z,101295.69
2023-01-13T22:00:49.198Z,101296.47
2023-01-13T22:03:18.517Z,101285.94
2023-01-13T22:05:46.364Z,101293.78
2023-01-13T22:08:13.638Z,101290.19
2023-01-13T22:11:01.127Z,101304.16
2023-01-13T22:13:48.034Z,101305.88
2023-01-13T22:16:15.838Z,101309.38
2023-01-13T22:18:43.210Z,101305.88
2023-01-13T22:21:11.031Z,101331.22
2023-01-13T22:23:38.248Z,101339.94
2023-01-13T22:26:07.368Z,101333.81
2023-01-13T22:28:40.717Z,101327.69
2023-01-13T22:31:17.195Z,101335.56
2023-01-13T22:33:48.075Z,101334.66
2023-01-13T22:36:15.774Z,101349.56
2023-01-13T22:38:42.941Z,101341.72
2023-01-13T22:41:11.046Z,101340.91
2023-01-13T22:43:39.266Z,101343.53
2023-01-13T22:46:08.293Z,101357.44
2023-01-13T22:48:35.984Z,101349.56
2023-01-13T22:51:15.931Z,101348.75
2023-01-13T22:53:44.387Z,101348.81
2023-01-13T22:56:18.777Z,101353.19
2023-01-13T22:58:46.530Z,101351.44
2023-01-13T23:01:16.794Z,101359.22
2023-01-13T23:03:47.712Z,101362.66
2023-01-13T23:06:15.700Z,101360.03
2023-01-13T23:08:42.806Z,101360.88
2023-01-13T23:11:13.036Z,101362.59
2023-01-13T23:13:43.148Z,101366.84
2023-01-13T23:16:14.360Z,101366.84
2023-01-13T23:18:48.558Z,101372.03
2023-01-13T23:21:40.593Z,101361.56
2023-01-13T23:24:09.551Z,101361.53
2023-01-13T23:26:36.902Z,101353.63
2023-01-13T23:29:11.084Z,101344.91
2023-01-13T23:31:39.076Z,101331.75
2023-01-13T23:34:09.112Z,101347.44
2023-01-13T23:36:40.836Z,101342.16
2023-01-13T23:39:08.409Z,101336.94
2023-01-13T23:41:35.453Z,101341.25
2023-01-13T23:44:02.506Z,101335.06
2023-01-13T23:46:32.701Z,101338.47
2023-01-13T23:49:01.718Z,101337.50
2023-01-13T23:51:30.231Z,101341.78
2023-01-13T23:53:58.710Z,101339.06
2023-01-13T23:56:29.782Z,101348.59
2023-01-13T23:58:57.881Z,101350.28
